sensor_id;sensor_type;location;lat;lon;timestamp;P1;durP1;ratioP1;P2;durP2;ratioP2
45848;SDS011;31567;54.600;9.842;2023-09-19T00:01:50;3.65;;;2.05;;
45848;SDS011;31567;54.600;9.842;2023-09-19T00:05:33;3.53;;;1.73;;
45848;SDS011;31567;54.600;9.842;2023-09-19T00:09:13;5.75;;;1.95;;
45848;SDS011;31567;54.600;9.842;2023-09-19T00:12:53;7.70;;;1.90;;
45848;SDS011;31567;54.600;9.842;2023-09-19T00:16:37;4.07;;;1.90;;
45848;SDS011;31567;54.600;9.842;2023-09-19T00:20:17;3.45;;;1.73;;
45848;SDS011;31567;54.600;9.842;2023-09-19T00:23:57;5.50;;;1.67;;
45848;SDS011;31567;54.600;9.842;2023-09-19T00:27:40;4.60;;;2.10;;
45848;SDS011;31567;54.600;9.842;2023-09-19T00:31:22;5.40;;;1.95;;
45848;SDS011;31567;54.600;9.842;2023-09-19T00:35:02;6.30;;;1.80;;
45848;SDS011;31567;54.600;9.842;2023-09-19T00:38:42;4.88;;;1.60;;
45848;SDS011;31567;54.600;9.842;2023-09-19T00:42:23;5.43;;;1.77;;
45848;SDS011;31567;54.600;9.842;2023-09-19T00:46:04;4.35;;;1.70;;
45848;SDS011;31567;54.600;9.842;2023-09-19T00:49:45;8.93;;;2.10;;
45848;SDS011;31567;54.600;9.842;2023-09-19T00:53:28;7.18;;;1.15;;
45848;SDS011;31567;54.600;9.842;2023-09-19T00:57:10;8.25;;;1.88;;
45848;SDS011;31567;54.600;9.842;2023-09-19T01:00:50;5.95;;;1.67;;
45848;SDS011;31567;54.600;9.842;2023-09-19T01:04:32;14.65;;;2.65;;
45848;SDS011;31567;54.600;9.842;2023-09-19T01:08:12;10.30;;;2.15;;
45848;SDS011;31567;54.600;9.842;2023-09-19T01:11:53;11.57;;;2.03;;
45848;SDS011;31567;54.600;9.842;2023-09-19T01:31:50;14.20;;;2.63;;
45848;SDS011;31567;54.600;9.842;2023-09-19T01:35:33;12.15;;;2.72;;
45848;SDS011;31567;54.600;9.842;2023-09-19T01:39:13;9.45;;;2.10;;
45848;SDS011;31567;54.600;9.842;2023-09-19T01:42:56;11.35;;;2.30;;
45848;SDS011;31567;54.600;9.842;2023-09-19T01:46:47;12.73;;;2.05;;
45848;SDS011;31567;54.600;9.842;2023-09-19T01:50:44;9.73;;;2.03;;
45848;SDS011;31567;54.600;9.842;2023-09-19T01:54:46;6.88;;;1.90;;
45848;SDS011;31567;54.600;9.842;2023-09-19T01:58:45;7.97;;;2.60;;
45848;SDS011;31567;54.600;9.842;2023-09-19T02:02:27;7.53;;;2.10;;
45848;SDS011;31567;54.600;9.842;2023-09-19T02:06:08;13.20;;;2.95;;
45848;SDS011;31567;54.600;9.842;2023-09-19T02:09:53;12.75;;;2.80;;
45848;SDS011;31567;54.600;9.842;2023-09-19T02:13:34;14.93;;;3.03;;
45848;SDS011;31567;54.600;9.842;2023-09-19T02:17:13;5.57;;;1.73;;
45848;SDS011;31567;54.600;9.842;2023-09-19T02:20:53;10.35;;;2.50;;
45848;SDS011;31567;54.600;9.842;2023-09-19T02:24:33;8.73;;;2.92;;
45848;SDS011;31567;54.600;9.842;2023-09-19T02:28:14;13.57;;;2.67;;
45848;SDS011;31567;54.600;9.842;2023-09-19T02:31:53;6.97;;;2.00;;
45848;SDS011;31567;54.600;9.842;2023-09-19T02:35:35;10.02;;;2.58;;
45848;SDS011;31567;54.600;9.842;2023-09-19T02:39:15;9.20;;;2.17;;
45848;SDS011;31567;54.600;9.842;2023-09-19T02:42:55;10.27;;;2.33;;
45848;SDS011;31567;54.600;9.842;2023-09-19T02:46:35;6.57;;;2.20;;
45848;SDS011;31567;54.600;9.842;2023-09-19T02:50:17;6.50;;;1.92;;
45848;SDS011;31567;54.600;9.842;2023-09-19T02:53:57;10.20;;;2.10;;
45848;SDS011;31567;54.600;9.842;2023-09-19T02:57:38;7.70;;;1.90;;
45848;SDS011;31567;54.600;9.842;2023-09-19T03:01:20;10.30;;;2.25;;
45848;SDS011;31567;54.600;9.842;2023-09-19T03:05:00;8.95;;;2.25;;
45848;SDS011;31567;54.600;9.842;2023-09-19T03:08:39;11.30;;;2.13;;
45848;SDS011;31567;54.600;9.842;2023-09-19T03:12:21;10.10;;;3.78;;
45848;SDS011;31567;54.600;9.842;2023-09-19T03:16:00;6.68;;;1.63;;
45848;SDS011;31567;54.600;9.842;2023-09-19T03:19:40;8.07;;;1.83;;
45848;SDS011;31567;54.600;9.842;2023-09-19T03:23:19;4.30;;;1.60;;
45848;SDS011;31567;54.600;9.842;2023-09-19T03:26:59;10.25;;;2.28;;
45848;SDS011;31567;54.600;9.842;2023-09-19T03:30:39;6.97;;;2.03;;
45848;SDS011;31567;54.600;9.842;2023-09-19T03:34:18;8.60;;;2.17;;
45848;SDS011;31567;54.600;9.842;2023-09-19T03:37:58;7.63;;;2.15;;
45848;SDS011;31567;54.600;9.842;2023-09-19T03:41:38;11.30;;;2.40;;
45848;SDS011;31567;54.600;9.842;2023-09-19T03:45:18;7.47;;;2.13;;
45848;SDS011;31567;54.600;9.842;2023-09-19T03:48:58;10.90;;;2.20;;
45848;SDS011;31567;54.600;9.842;2023-09-19T03:52:37;13.00;;;2.40;;
45848;SDS011;31567;54.600;9.842;2023-09-19T03:56:17;11.98;;;3.28;;
45848;SDS011;31567;54.600;9.842;2023-09-19T03:59:56;10.63;;;2.70;;
45848;SDS011;31567;54.600;9.842;2023-09-19T04:03:36;12.82;;;3.03;;
45848;SDS011;31567;54.600;9.842;2023-09-19T04:07:25;17.90;;;3.92;;
45848;SDS011;31567;54.600;9.842;2023-09-19T04:11:08;20.13;;;3.83;;
45848;SDS011;31567;54.600;9.842;2023-09-19T04:14:47;15.60;;;3.30;;
45848;SDS011;31567;54.600;9.842;2023-09-19T04:18:29;13.55;;;3.30;;
45848;SDS011;31567;54.600;9.842;2023-09-19T04:22:11;20.75;;;3.33;;
45848;SDS011;31567;54.600;9.842;2023-09-19T04:25:51;19.95;;;3.83;;
45848;SDS011;31567;54.600;9.842;2023-09-19T04:29:31;16.45;;;3.88;;
45848;SDS011;31567;54.600;9.842;2023-09-19T04:33:11;18.33;;;3.83;;
45848;SDS011;31567;54.600;9.842;2023-09-19T04:36:53;19.35;;;3.80;;
45848;SDS011;31567;54.600;9.842;2023-09-19T04:40:33;14.82;;;3.63;;
45848;SDS011;31567;54.600;9.842;2023-09-19T04:44:13;15.07;;;3.38;;
45848;SDS011;31567;54.600;9.842;2023-09-19T04:47:53;10.85;;;2.65;;
45848;SDS011;31567;54.600;9.842;2023-09-19T04:51:33;16.85;;;3.38;;
45848;SDS011;31567;54.600;9.842;2023-09-19T04:55:15;15.10;;;2.53;;
45848;SDS011;31567;54.600;9.842;2023-09-19T04:58:58;12.25;;;2.03;;
45848;SDS011;31567;54.600;9.842;2023-09-19T05:02:38;11.00;;;1.98;;
45848;SDS011;31567;54.600;9.842;2023-09-19T05:06:19;8.90;;;2.35;;
45848;SDS011;31567;54.600;9.842;2023-09-19T05:10:02;9.27;;;2.03;;
45848;SDS011;31567;54.600;9.842;2023-09-19T05:13:44;10.05;;;1.95;;
45848;SDS011;31567;54.600;9.842;2023-09-19T05:17:23;9.60;;;1.88;;
45848;SDS011;31567;54.600;9.842;2023-09-19T05:21:03;10.38;;;2.53;;
45848;SDS011;31567;54.600;9.842;2023-09-19T05:24:43;10.75;;;2.78;;
45848;SDS011;31567;54.600;9.842;2023-09-19T05:28:26;10.10;;;2.13;;
45848;SDS011;31567;54.600;9.842;2023-09-19T05:32:06;13.48;;;2.17;;
45848;SDS011;31567;54.600;9.842;2023-09-19T05:35:47;13.40;;;2.85;;
45848;SDS011;31567;54.600;9.842;2023-09-19T05:39:27;12.70;;;2.72;;
45848;SDS011;31567;54.600;9.842;2023-09-19T05:43:06;8.02;;;1.80;;
45848;SDS011;31567;54.600;9.842;2023-09-19T05:46:47;8.75;;;1.70;;
45848;SDS011;31567;54.600;9.842;2023-09-19T05:50:27;5.70;;;1.95;;
45848;SDS011;31567;54.600;9.842;2023-09-19T05:54:06;7.35;;;2.20;;
45848;SDS011;31567;54.600;9.842;2023-09-19T05:57:49;5.78;;;1.15;;
45848;SDS011;31567;54.600;9.842;2023-09-19T06:01:30;7.03;;;1.48;;
45848;SDS011;31567;54.600;9.842;2023-09-19T06:05:11;5.35;;;1.55;;
45848;SDS011;31567;54.600;9.842;2023-09-19T06:08:50;7.38;;;1.65;;
45848;SDS011;31567;54.600;9.842;2023-09-19T06:12:30;7.10;;;1.60;;
45848;SDS011;31567;54.600;9.842;2023-09-19T06:16:12;8.35;;;1.52;;
45848;SDS011;31567;54.600;9.842;2023-09-19T06:19:52;9.63;;;1.75;;
45848;SDS011;31567;54.600;9.842;2023-09-19T06:23:32;7.97;;;1.75;;
45848;SDS011;31567;54.600;9.842;2023-09-19T06:27:11;7.65;;;1.70;;
45848;SDS011;31567;54.600;9.842;2023-09-19T06:30:51;6.03;;;1.58;;
45848;SDS011;31567;54.600;9.842;2023-09-19T06:34:31;7.82;;;1.50;;
45848;SDS011;31567;54.600;9.842;2023-09-19T06:38:10;5.50;;;1.80;;
45848;SDS011;31567;54.600;9.842;2023-09-19T06:41:52;3.50;;;1.08;;
45848;SDS011;31567;54.600;9.842;2023-09-19T06:45:34;6.85;;;1.60;;
45848;SDS011;31567;54.600;9.842;2023-09-19T06:49:14;5.22;;;1.55;;
45848;SDS011;31567;54.600;9.842;2023-09-19T06:52:54;6.78;;;2.15;;
45848;SDS011;31567;54.600;9.842;2023-09-19T06:56:36;4.60;;;1.40;;
45848;SDS011;31567;54.600;9.842;2023-09-19T07:00:15;8.98;;;1.65;;
45848;SDS011;31567;54.600;9.842;2023-09-19T07:04:00;7.30;;;1.58;;
45848;SDS011;31567;54.600;9.842;2023-09-19T07:07:40;8.43;;;2.10;;
45848;SDS011;31567;54.600;9.842;2023-09-19T07:11:19;11.18;;;1.73;;
45848;SDS011;31567;54.600;9.842;2023-09-19T07:15:00;7.03;;;2.00;;
45848;SDS011;31567;54.600;9.842;2023-09-19T07:18:40;9.27;;;1.83;;
45848;SDS011;31567;54.600;9.842;2023-09-19T07:22:19;10.05;;;2.33;;
45848;SDS011;31567;54.600;9.842;2023-09-19T07:26:00;11.32;;;2.00;;
45848;SDS011;31567;54.600;9.842;2023-09-19T07:29:40;8.50;;;1.80;;
45848;SDS011;31567;54.600;9.842;2023-09-19T07:33:19;9.23;;;1.60;;
45848;SDS011;31567;54.600;9.842;2023-09-19T07:36:59;9.82;;;2.25;;
45848;SDS011;31567;54.600;9.842;2023-09-19T07:40:39;11.25;;;2.08;;
45848;SDS011;31567;54.600;9.842;2023-09-19T07:44:18;11.65;;;2.05;;
45848;SDS011;31567;54.600;9.842;2023-09-19T07:47:59;6.88;;;1.90;;
45848;SDS011;31567;54.600;9.842;2023-09-19T07:51:43;11.80;;;2.67;;
45848;SDS011;31567;54.600;9.842;2023-09-19T07:55:25;13.63;;;2.70;;
45848;SDS011;31567;54.600;9.842;2023-09-19T07:59:05;9.30;;;2.13;;
45848;SDS011;31567;54.600;9.842;2023-09-19T08:02:44;9.48;;;2.10;;
45848;SDS011;31567;54.600;9.842;2023-09-19T08:06:24;10.32;;;2.17;;
45848;SDS011;31567;54.600;9.842;2023-09-19T08:10:08;9.05;;;2.33;;
45848;SDS011;31567;54.600;9.842;2023-09-19T08:13:54;10.75;;;2.00;;
45848;SDS011;31567;54.600;9.842;2023-09-19T08:17:34;6.88;;;2.20;;
45848;SDS011;31567;54.600;9.842;2023-09-19T08:21:14;8.45;;;2.13;;
45848;SDS011;31567;54.600;9.842;2023-09-19T08:24:54;11.20;;;1.77;;
45848;SDS011;31567;54.600;9.842;2023-09-19T08:28:35;13.93;;;2.83;;
45848;SDS011;31567;54.600;9.842;2023-09-19T08:32:15;6.53;;;2.40;;
45848;SDS011;31567;54.600;9.842;2023-09-19T08:35:55;13.88;;;3.42;;
45848;SDS011;31567;54.600;9.842;2023-09-19T08:39:35;9.98;;;2.50;;
45848;SDS011;31567;54.600;9.842;2023-09-19T08:43:15;8.63;;;2.05;;
45848;SDS011;31567;54.600;9.842;2023-09-19T08:46:58;11.00;;;2.38;;
45848;SDS011;31567;54.600;9.842;2023-09-19T08:51:06;9.60;;;2.35;;
45848;SDS011;31567;54.600;9.842;2023-09-19T08:54:51;13.57;;;2.22;;
45848;SDS011;31567;54.600;9.842;2023-09-19T08:58:34;15.27;;;2.13;;
45848;SDS011;31567;54.600;9.842;2023-09-19T09:02:23;11.05;;;2.10;;
45848;SDS011;31567;54.600;9.842;2023-09-19T09:06:04;13.48;;;2.33;;
45848;SDS011;31567;54.600;9.842;2023-09-19T09:09:44;11.23;;;1.95;;
45848;SDS011;31567;54.600;9.842;2023-09-19T09:13:24;12.02;;;2.25;;
45848;SDS011;31567;54.600;9.842;2023-09-19T09:17:05;12.38;;;2.60;;
45848;SDS011;31567;54.600;9.842;2023-09-19T09:20:46;13.98;;;2.40;;
45848;SDS011;31567;54.600;9.842;2023-09-19T09:24:28;7.55;;;1.67;;
45848;SDS011;31567;54.600;9.842;2023-09-19T09:28:13;9.95;;;2.08;;
45848;SDS011;31567;54.600;9.842;2023-09-19T09:31:59;5.47;;;1.30;;
45848;SDS011;31567;54.600;9.842;2023-09-19T09:35:57;7.45;;;2.60;;
45848;SDS011;31567;54.600;9.842;2023-09-19T09:39:48;6.43;;;1.88;;
45848;SDS011;31567;54.600;9.842;2023-09-19T09:43:31;8.73;;;1.90;;
45848;SDS011;31567;54.600;9.842;2023-09-19T09:47:15;12.25;;;2.53;;
45848;SDS011;31567;54.600;9.842;2023-09-19T09:51:36;8.95;;;2.35;;
45848;SDS011;31567;54.600;9.842;2023-09-19T09:55:18;10.85;;;2.97;;
45848;SDS011;31567;54.600;9.842;2023-09-19T09:58:59;10.95;;;2.30;;
45848;SDS011;31567;54.600;9.842;2023-09-19T10:02:39;9.18;;;2.53;;
45848;SDS011;31567;54.600;9.842;2023-09-19T10:06:19;13.07;;;2.15;;
45848;SDS011;31567;54.600;9.842;2023-09-19T10:10:06;8.05;;;2.00;;
45848;SDS011;31567;54.600;9.842;2023-09-19T10:13:55;7.82;;;1.80;;
45848;SDS011;31567;54.600;9.842;2023-09-19T10:17:34;9.75;;;2.65;;
45848;SDS011;31567;54.600;9.842;2023-09-19T10:21:15;8.63;;;1.77;;
45848;SDS011;31567;54.600;9.842;2023-09-19T10:25:01;7.90;;;1.98;;
45848;SDS011;31567;54.600;9.842;2023-09-19T10:28:45;9.38;;;1.58;;
45848;SDS011;31567;54.600;9.842;2023-09-19T10:32:29;8.20;;;1.95;;
45848;SDS011;31567;54.600;9.842;2023-09-19T10:36:12;7.78;;;1.75;;
45848;SDS011;31567;54.600;9.842;2023-09-19T10:39:52;4.90;;;1.40;;
45848;SDS011;31567;54.600;9.842;2023-09-19T10:43:35;6.60;;;1.73;;
45848;SDS011;31567;54.600;9.842;2023-09-19T10:47:18;12.60;;;2.50;;
45848;SDS011;31567;54.600;9.842;2023-09-19T10:51:06;9.38;;;2.58;;
45848;SDS011;31567;54.600;9.842;2023-09-19T10:54:50;9.13;;;2.22;;
45848;SDS011;31567;54.600;9.842;2023-09-19T10:58:33;9.57;;;2.95;;
45848;SDS011;31567;54.600;9.842;2023-09-19T11:02:16;11.15;;;2.53;;
45848;SDS011;31567;54.600;9.842;2023-09-19T11:06:03;6.78;;;2.13;;
45848;SDS011;31567;54.600;9.842;2023-09-19T11:13:37;11.63;;;1.92;;
45848;SDS011;31567;54.600;9.842;2023-09-19T11:29:25;8.05;;;2.08;;
45848;SDS011;31567;54.600;9.842;2023-09-19T11:41:36;9.07;;;2.53;;
45848;SDS011;31567;54.600;9.842;2023-09-19T11:45:01;10.55;;;2.30;;
45848;SDS011;31567;54.600;9.842;2023-09-19T11:48:40;7.03;;;1.70;;
45848;SDS011;31567;54.600;9.842;2023-09-19T11:52:22;6.75;;;1.70;;
45848;SDS011;31567;54.600;9.842;2023-09-19T11:56:05;13.05;;;2.30;;
45848;SDS011;31567;54.600;9.842;2023-09-19T11:59:49;8.05;;;1.88;;
45848;SDS011;31567;54.600;9.842;2023-09-19T12:03:29;7.50;;;1.80;;
45848;SDS011;31567;54.600;9.842;2023-09-19T12:07:14;9.05;;;2.58;;
45848;SDS011;31567;54.600;9.842;2023-09-19T12:10:54;13.48;;;2.30;;
45848;SDS011;31567;54.600;9.842;2023-09-19T12:14:34;7.30;;;1.80;;
45848;SDS011;31567;54.600;9.842;2023-09-19T12:18:29;10.07;;;2.47;;
45848;SDS011;31567;54.600;9.842;2023-09-19T12:22:09;10.35;;;2.08;;
45848;SDS011;31567;54.600;9.842;2023-09-19T12:25:49;11.50;;;2.58;;
45848;SDS011;31567;54.600;9.842;2023-09-19T12:29:41;9.75;;;1.88;;
45848;SDS011;31567;54.600;9.842;2023-09-19T12:33:25;5.35;;;1.80;;
45848;SDS011;31567;54.600;9.842;2023-09-19T12:37:09;12.32;;;2.45;;
45848;SDS011;31567;54.600;9.842;2023-09-19T12:41:01;9.90;;;2.20;;
45848;SDS011;31567;54.600;9.842;2023-09-19T12:44:42;6.82;;;1.88;;
45848;SDS011;31567;54.600;9.842;2023-09-19T12:48:24;7.90;;;2.03;;
45848;SDS011;31567;54.600;9.842;2023-09-19T12:52:12;12.77;;;2.33;;
45848;SDS011;31567;54.600;9.842;2023-09-19T12:55:59;7.13;;;1.50;;
45848;SDS011;31567;54.600;9.842;2023-09-19T12:59:38;8.50;;;1.75;;
45848;SDS011;31567;54.600;9.842;2023-09-19T13:03:28;8.57;;;1.90;;
45848;SDS011;31567;54.600;9.842;2023-09-19T13:07:20;11.23;;;2.28;;
45848;SDS011;31567;54.600;9.842;2023-09-19T13:11:22;10.60;;;1.90;;
45848;SDS011;31567;54.600;9.842;2023-09-19T13:15:11;11.27;;;2.40;;
45848;SDS011;31567;54.600;9.842;2023-09-19T13:18:58;9.38;;;3.08;;
45848;SDS011;31567;54.600;9.842;2023-09-19T13:22:41;8.70;;;2.13;;
45848;SDS011;31567;54.600;9.842;2023-09-19T13:26:24;8.47;;;2.90;;
45848;SDS011;31567;54.600;9.842;2023-09-19T13:30:05;8.73;;;2.33;;
45848;SDS011;31567;54.600;9.842;2023-09-19T13:33:45;7.65;;;2.35;;
45848;SDS011;31567;54.600;9.842;2023-09-19T13:37:26;9.18;;;2.45;;
45848;SDS011;31567;54.600;9.842;2023-09-19T13:41:06;9.13;;;1.88;;
45848;SDS011;31567;54.600;9.842;2023-09-19T13:44:46;7.95;;;2.20;;
45848;SDS011;31567;54.600;9.842;2023-09-19T13:48:25;10.77;;;1.88;;
45848;SDS011;31567;54.600;9.842;2023-09-19T13:52:05;9.63;;;3.20;;
45848;SDS011;31567;54.600;9.842;2023-09-19T13:55:44;10.40;;;2.88;;
45848;SDS011;31567;54.600;9.842;2023-09-19T13:59:24;9.27;;;2.45;;
45848;SDS011;31567;54.600;9.842;2023-09-19T14:03:03;7.78;;;2.70;;
45848;SDS011;31567;54.600;9.842;2023-09-19T14:06:43;8.45;;;2.63;;
45848;SDS011;31567;54.600;9.842;2023-09-19T14:10:25;9.60;;;2.45;;
45848;SDS011;31567;54.600;9.842;2023-09-19T14:14:09;7.88;;;2.65;;
45848;SDS011;31567;54.600;9.842;2023-09-19T14:17:48;10.50;;;2.28;;
45848;SDS011;31567;54.600;9.842;2023-09-19T14:21:28;9.60;;;2.33;;
45848;SDS011;31567;54.600;9.842;2023-09-19T14:25:07;10.10;;;2.53;;
45848;SDS011;31567;54.600;9.842;2023-09-19T14:28:48;11.38;;;2.22;;
45848;SDS011;31567;54.600;9.842;2023-09-19T14:32:27;7.40;;;2.10;;
45848;SDS011;31567;54.600;9.842;2023-09-19T14:36:08;11.25;;;2.70;;
45848;SDS011;31567;54.600;9.842;2023-09-19T14:39:49;8.80;;;2.72;;
45848;SDS011;31567;54.600;9.842;2023-09-19T14:43:29;9.80;;;2.10;;
45848;SDS011;31567;54.600;9.842;2023-09-19T14:47:09;9.18;;;2.58;;
45848;SDS011;31567;54.600;9.842;2023-09-19T14:50:52;8.35;;;2.20;;
45848;SDS011;31567;54.600;9.842;2023-09-19T14:54:32;10.23;;;2.75;;
45848;SDS011;31567;54.600;9.842;2023-09-19T14:58:13;10.95;;;3.70;;
45848;SDS011;31567;54.600;9.842;2023-09-19T15:01:52;11.00;;;2.45;;
45848;SDS011;31567;54.600;9.842;2023-09-19T15:05:32;8.95;;;1.88;;
45848;SDS011;31567;54.600;9.842;2023-09-19T15:09:13;10.05;;;2.20;;
45848;SDS011;31567;54.600;9.842;2023-09-19T15:12:52;16.17;;;2.17;;
45848;SDS011;31567;54.600;9.842;2023-09-19T15:16:32;5.88;;;2.20;;
45848;SDS011;31567;54.600;9.842;2023-09-19T15:20:12;7.32;;;2.25;;
45848;SDS011;31567;54.600;9.842;2023-09-19T15:23:52;12.68;;;2.60;;
45848;SDS011;31567;54.600;9.842;2023-09-19T15:27:32;7.40;;;2.17;;
45848;SDS011;31567;54.600;9.842;2023-09-19T15:31:12;10.80;;;2.08;;
45848;SDS011;31567;54.600;9.842;2023-09-19T15:34:52;6.90;;;2.20;;
45848;SDS011;31567;54.600;9.842;2023-09-19T15:38:32;10.95;;;2.53;;
45848;SDS011;31567;54.600;9.842;2023-09-19T15:42:38;12.70;;;2.15;;
45848;SDS011;31567;54.600;9.842;2023-09-19T15:46:18;7.03;;;1.35;;
45848;SDS011;31567;54.600;9.842;2023-09-19T15:49:59;6.35;;;2.15;;
45848;SDS011;31567;54.600;9.842;2023-09-19T15:57:27;7.28;;;1.52;;
45848;SDS011;31567;54.600;9.842;2023-09-19T16:01:07;9.48;;;1.75;;
45848;SDS011;31567;54.600;9.842;2023-09-19T16:04:47;10.00;;;1.90;;
45848;SDS011;31567;54.600;9.842;2023-09-19T16:08:27;9.30;;;2.85;;
45848;SDS011;31567;54.600;9.842;2023-09-19T16:12:07;5.35;;;2.03;;
45848;SDS011;31567;54.600;9.842;2023-09-19T16:15:48;7.85;;;2.03;;
45848;SDS011;31567;54.600;9.842;2023-09-19T16:19:27;9.32;;;1.48;;
45848;SDS011;31567;54.600;9.842;2023-09-19T16:23:07;7.68;;;1.50;;
45848;SDS011;31567;54.600;9.842;2023-09-19T16:26:47;7.63;;;1.90;;
45848;SDS011;31567;54.600;9.842;2023-09-19T16:30:28;6.10;;;1.85;;
45848;SDS011;31567;54.600;9.842;2023-09-19T16:34:07;6.93;;;2.25;;
45848;SDS011;31567;54.600;9.842;2023-09-19T16:37:48;8.75;;;1.55;;
45848;SDS011;31567;54.600;9.842;2023-09-19T16:41:27;7.65;;;2.08;;
45848;SDS011;31567;54.600;9.842;2023-09-19T16:45:08;6.00;;;1.60;;
45848;SDS011;31567;54.600;9.842;2023-09-19T16:48:49;8.98;;;1.92;;
45848;SDS011;31567;54.600;9.842;2023-09-19T16:52:29;9.98;;;2.22;;
45848;SDS011;31567;54.600;9.842;2023-09-19T16:56:08;8.85;;;1.60;;
45848;SDS011;31567;54.600;9.842;2023-09-19T16:59:49;5.50;;;1.50;;
45848;SDS011;31567;54.600;9.842;2023-09-19T17:03:32;4.95;;;1.45;;
45848;SDS011;31567;54.600;9.842;2023-09-19T17:07:11;5.80;;;1.80;;
45848;SDS011;31567;54.600;9.842;2023-09-19T17:10:51;6.82;;;1.98;;
45848;SDS011;31567;54.600;9.842;2023-09-19T17:14:33;8.25;;;1.92;;
45848;SDS011;31567;54.600;9.842;2023-09-19T17:18:14;4.78;;;1.25;;
45848;SDS011;31567;54.600;9.842;2023-09-19T17:21:53;12.35;;;2.15;;
45848;SDS011;31567;54.600;9.842;2023-09-19T17:25:33;10.82;;;1.98;;
45848;SDS011;31567;54.600;9.842;2023-09-19T17:29:13;11.20;;;1.65;;
45848;SDS011;31567;54.600;9.842;2023-09-19T17:32:52;5.88;;;1.33;;
45848;SDS011;31567;54.600;9.842;2023-09-19T17:36:32;5.32;;;1.30;;
45848;SDS011;31567;54.600;9.842;2023-09-19T17:40:14;6.60;;;1.48;;
45848;SDS011;31567;54.600;9.842;2023-09-19T17:43:55;5.70;;;1.45;;
45848;SDS011;31567;54.600;9.842;2023-09-19T17:47:40;7.60;;;1.95;;
45848;SDS011;31567;54.600;9.842;2023-09-19T17:51:21;11.20;;;2.20;;
45848;SDS011;31567;54.600;9.842;2023-09-19T17:55:01;5.25;;;1.50;;
45848;SDS011;31567;54.600;9.842;2023-09-19T17:58:41;6.97;;;1.52;;
45848;SDS011;31567;54.600;9.842;2023-09-19T18:02:21;5.82;;;1.60;;
45848;SDS011;31567;54.600;9.842;2023-09-19T18:06:01;6.03;;;2.25;;
45848;SDS011;31567;54.600;9.842;2023-09-19T18:09:41;9.90;;;1.98;;
45848;SDS011;31567;54.600;9.842;2023-09-19T18:13:21;7.15;;;1.35;;
45848;SDS011;31567;54.600;9.842;2023-09-19T18:17:00;6.88;;;1.70;;
45848;SDS011;31567;54.600;9.842;2023-09-19T18:20:40;4.35;;;1.48;;
45848;SDS011;31567;54.600;9.842;2023-09-19T18:24:20;4.05;;;1.20;;
45848;SDS011;31567;54.600;9.842;2023-09-19T18:28:00;5.75;;;1.52;;
45848;SDS011;31567;54.600;9.842;2023-09-19T18:31:41;9.88;;;1.40;;
45848;SDS011;31567;54.600;9.842;2023-09-19T18:35:21;5.60;;;1.05;;
45848;SDS011;31567;54.600;9.842;2023-09-19T18:39:02;5.97;;;1.20;;
45848;SDS011;31567;54.600;9.842;2023-09-19T18:42:47;9.13;;;1.88;;
45848;SDS011;31567;54.600;9.842;2023-09-19T18:46:26;5.68;;;1.23;;
45848;SDS011;31567;54.600;9.842;2023-09-19T18:50:09;6.78;;;1.25;;
45848;SDS011;31567;54.600;9.842;2023-09-19T18:53:49;4.97;;;1.20;;
45848;SDS011;31567;54.600;9.842;2023-09-19T18:57:29;3.30;;;1.48;;
45848;SDS011;31567;54.600;9.842;2023-09-19T19:01:09;4.55;;;1.30;;
45848;SDS011;31567;54.600;9.842;2023-09-19T19:04:50;5.82;;;1.40;;
45848;SDS011;31567;54.600;9.842;2023-09-19T19:08:29;5.57;;;1.40;;
45848;SDS011;31567;54.600;9.842;2023-09-19T19:12:10;4.30;;;1.13;;
45848;SDS011;31567;54.600;9.842;2023-09-19T19:15:50;4.72;;;1.05;;
45848;SDS011;31567;54.600;9.842;2023-09-19T19:19:30;4.15;;;0.90;;
45848;SDS011;31567;54.600;9.842;2023-09-19T19:23:10;9.25;;;1.30;;
45848;SDS011;31567;54.600;9.842;2023-09-19T19:26:50;5.35;;;1.30;;
45848;SDS011;31567;54.600;9.842;2023-09-19T19:30:30;3.60;;;1.25;;
45848;SDS011;31567;54.600;9.842;2023-09-19T19:34:11;5.00;;;0.90;;
45848;SDS011;31567;54.600;9.842;2023-09-19T19:37:50;2.67;;;0.90;;
45848;SDS011;31567;54.600;9.842;2023-09-19T19:41:30;5.30;;;1.27;;
45848;SDS011;31567;54.600;9.842;2023-09-19T19:45:10;4.72;;;1.10;;
45848;SDS011;31567;54.600;9.842;2023-09-19T19:48:50;3.90;;;1.20;;
45848;SDS011;31567;54.600;9.842;2023-09-19T19:52:30;5.20;;;1.05;;
45848;SDS011;31567;54.600;9.842;2023-09-19T19:56:11;5.43;;;1.02;;
45848;SDS011;31567;54.600;9.842;2023-09-19T19:59:51;2.38;;;1.30;;
45848;SDS011;31567;54.600;9.842;2023-09-19T20:03:33;5.63;;;1.42;;
45848;SDS011;31567;54.600;9.842;2023-09-19T20:07:14;4.30;;;1.15;;
45848;SDS011;31567;54.600;9.842;2023-09-19T20:10:59;7.15;;;1.60;;
45848;SDS011;31567;54.600;9.842;2023-09-19T20:14:43;3.40;;;1.70;;
45848;SDS011;31567;54.600;9.842;2023-09-19T20:18:22;7.22;;;1.88;;
45848;SDS011;31567;54.600;9.842;2023-09-19T20:22:02;7.00;;;1.60;;
45848;SDS011;31567;54.600;9.842;2023-09-19T20:25:44;2.95;;;1.70;;
45848;SDS011;31567;54.600;9.842;2023-09-19T20:29:25;3.10;;;1.40;;
45848;SDS011;31567;54.600;9.842;2023-09-19T20:33:06;3.75;;;1.25;;
45848;SDS011;31567;54.600;9.842;2023-09-19T20:36:46;4.55;;;1.55;;
45848;SDS011;31567;54.600;9.842;2023-09-19T20:40:25;6.18;;;1.42;;
45848;SDS011;31567;54.600;9.842;2023-09-19T20:44:05;6.07;;;1.70;;
45848;SDS011;31567;54.600;9.842;2023-09-19T20:47:45;3.47;;;1.40;;
45848;SDS011;31567;54.600;9.842;2023-09-19T20:51:26;4.20;;;1.40;;
45848;SDS011;31567;54.600;9.842;2023-09-19T20:55:08;6.68;;;1.67;;
45848;SDS011;31567;54.600;9.842;2023-09-19T20:58:49;5.85;;;1.67;;
45848;SDS011;31567;54.600;9.842;2023-09-19T21:02:29;5.57;;;1.45;;
45848;SDS011;31567;54.600;9.842;2023-09-19T21:06:09;4.60;;;1.60;;
45848;SDS011;31567;54.600;9.842;2023-09-19T21:09:56;6.47;;;1.70;;
45848;SDS011;31567;54.600;9.842;2023-09-19T21:13:37;5.00;;;2.15;;
45848;SDS011;31567;54.600;9.842;2023-09-19T21:17:17;7.60;;;1.40;;
45848;SDS011;31567;54.600;9.842;2023-09-19T21:21:04;5.18;;;1.52;;
45848;SDS011;31567;54.600;9.842;2023-09-19T21:24:49;3.72;;;1.20;;
45848;SDS011;31567;54.600;9.842;2023-09-19T21:28:30;4.45;;;1.70;;
45848;SDS011;31567;54.600;9.842;2023-09-19T21:32:10;5.38;;;1.50;;
45848;SDS011;31567;54.600;9.842;2023-09-19T21:35:49;4.85;;;1.55;;
45848;SDS011;31567;54.600;9.842;2023-09-19T21:39:29;6.25;;;1.70;;
45848;SDS011;31567;54.600;9.842;2023-09-19T21:43:08;7.57;;;1.65;;
45848;SDS011;31567;54.600;9.842;2023-09-19T21:46:49;7.28;;;2.15;;
45848;SDS011;31567;54.600;9.842;2023-09-19T21:50:28;6.60;;;2.05;;
45848;SDS011;31567;54.600;9.842;2023-09-19T21:54:11;14.48;;;2.00;;
45848;SDS011;31567;54.600;9.842;2023-09-19T21:57:52;4.80;;;1.30;;
45848;SDS011;31567;54.600;9.842;2023-09-19T22:01:31;5.15;;;2.10;;
45848;SDS011;31567;54.600;9.842;2023-09-19T22:05:11;5.70;;;1.58;;
45848;SDS011;31567;54.600;9.842;2023-09-19T22:08:51;5.50;;;1.45;;
45848;SDS011;31567;54.600;9.842;2023-09-19T22:12:31;5.47;;;1.58;;
45848;SDS011;31567;54.600;9.842;2023-09-19T22:16:12;2.42;;;1.15;;
45848;SDS011;31567;54.600;9.842;2023-09-19T22:19:55;5.90;;;2.35;;
45848;SDS011;31567;54.600;9.842;2023-09-19T22:23:35;4.57;;;1.45;;
45848;SDS011;31567;54.600;9.842;2023-09-19T22:27:15;4.20;;;1.70;;
45848;SDS011;31567;54.600;9.842;2023-09-19T22:30:54;7.45;;;1.90;;
45848;SDS011;31567;54.600;9.842;2023-09-19T22:34:34;3.03;;;1.85;;
45848;SDS011;31567;54.600;9.842;2023-09-19T22:38:14;3.25;;;1.63;;
45848;SDS011;31567;54.600;9.842;2023-09-19T22:41:54;4.10;;;1.90;;
45848;SDS011;31567;54.600;9.842;2023-09-19T22:45:39;4.95;;;1.98;;
45848;SDS011;31567;54.600;9.842;2023-09-19T22:49:19;3.47;;;1.88;;
45848;SDS011;31567;54.600;9.842;2023-09-19T22:52:59;4.20;;;2.10;;